createdAt,value
2019-01-14T00:00:02.188Z,62.50
2019-01-14T00:02:30.403Z,55.30
2019-01-14T00:04:58.608Z,61.87
2019-01-14T00:07:26.803Z,55.57
2019-01-14T00:09:55.012Z,55.53
2019-01-14T00:12:23.795Z,57.70
2019-01-14T00:14:51.987Z,57.60
2019-01-14T00:17:20.196Z,61.67
2019-01-14T00:19:48.392Z,53.33
2019-01-14T00:22:16.599Z,54.80
2019-01-14T00:24:44.795Z,52.77
2019-01-14T00:27:13.003Z,51.40
2019-01-14T00:29:41.204Z,52.30
2019-01-14T00:32:09.420Z,50.57
2019-01-14T00:34:37.683Z,48.40
2019-01-14T00:37:05.884Z,47.93
2019-01-14T00:39:34.098Z,48.97
2019-01-14T00:42:02.291Z,51.00
2019-01-14T00:44:30.517Z,47.77
2019-01-14T00:46:58.715Z,47.87
2019-01-14T00:49:26.911Z,45.27
2019-01-14T00:51:55.132Z,47.40
2019-01-14T00:54:23.328Z,50.23
2019-01-14T00:56:51.704Z,42.73
2019-01-14T00:59:19.916Z,50.50
2019-01-14T01:01:48.111Z,44.17
2019-01-14T01:04:16.307Z,47.60
2019-01-14T01:06:44.515Z,42.77
2019-01-14T01:09:12.717Z,40.97
2019-01-14T01:11:40.913Z,43.63
2019-01-14T01:14:09.119Z,44.17
2019-01-14T01:16:37.329Z,39.27
2019-01-14T01:19:05.536Z,36.13
2019-01-14T01:21:33.736Z,39.13
2019-01-14T01:24:01.951Z,42.27
2019-01-14T01:26:30.163Z,39.10
2019-01-14T01:28:58.360Z,39.17
2019-01-14T01:31:26.575Z,41.23
2019-01-14T01:33:54.777Z,39.23
2019-01-14T01:36:22.991Z,41.10
2019-01-14T01:38:51.189Z,37.60
2019-01-14T01:41:19.403Z,37.03
2019-01-14T01:43:47.607Z,34.87
2019-01-14T01:46:15.819Z,34.40
2019-01-14T01:48:44.247Z,34.53
2019-01-14T01:51:12.459Z,30.33
2019-01-14T01:53:40.664Z,38.30
2019-01-14T01:56:08.863Z,37.60
2019-01-14T01:58:37.072Z,32.93
2019-01-14T02:01:05.275Z,31.33
2019-01-14T02:03:33.484Z,35.53
2019-01-14T02:06:01.684Z,35.93
2019-01-14T02:08:29.887Z,32.40
2019-01-14T02:10:58.087Z,33.93
2019-01-14T02:13:26.295Z,33.37
2019-01-14T02:15:54.499Z,29.17
2019-01-14T02:18:22.703Z,35.80
2019-01-14T02:20:50.913Z,28.37
2019-01-14T02:23:19.107Z,27.03
2019-01-14T02:25:47.316Z,34.03
2019-01-14T02:28:15.515Z,28.40
2019-01-14T02:30:43.725Z,35.77
2019-01-14T02:33:11.928Z,30.17
2019-01-14T02:35:40.210Z,31.13
2019-01-14T02:38:08.408Z,26.47
2019-01-14T02:40:36.616Z,26.37
2019-01-14T02:43:04.823Z,28.73
2019-01-14T02:45:33.040Z,28.83
2019-01-14T02:48:01.300Z,28.03
2019-01-14T02:50:29.527Z,27.63
2019-01-14T02:52:57.727Z,25.63
2019-01-14T02:55:25.935Z,23.40
2019-01-14T02:57:54.139Z,25.50
2019-01-14T03:00:24.891Z,24.83
2019-01-14T03:02:53.085Z,22.90
2019-01-14T03:05:21.280Z,25.53
2019-01-14T03:07:49.488Z,21.20
2019-01-14T03:10:17.703Z,23.63
2019-01-14T03:12:45.905Z,24.70
2019-01-14T03:15:15.744Z,24.43
2019-01-14T03:17:43.955Z,23.80
2019-01-14T03:20:16.424Z,23.87
2019-01-14T03:22:44.615Z,21.63
2019-01-14T03:25:13.573Z,21.07
2019-01-14T03:27:41.777Z,20.77
2019-01-14T03:30:12.437Z,23.17
2019-01-14T03:32:40.641Z,18.77
2019-01-14T03:35:08.860Z,21.80
2019-01-14T03:37:37.052Z,23.83
2019-01-14T03:40:08.616Z,22.33
2019-01-14T03:42:37.384Z,20.87
2019-01-14T03:45:05.872Z,21.30
2019-01-14T03:47:34.071Z,21.40
2019-01-14T03:50:02.351Z,17.97
2019-01-14T03:52:30.543Z,21.77
2019-01-14T03:54:58.748Z,19.30
2019-01-14T03:57:26.953Z,20.10
2019-01-14T03:59:55.143Z,19.10
2019-01-14T04:02:23.356Z,16.67
2019-01-14T04:04:51.547Z,19.87
2019-01-14T04:07:19.755Z,21.47
2019-01-14T04:09:47.949Z,16.13
2019-01-14T04:12:16.160Z,18.53
2019-01-14T04:14:44.351Z,17.57
2019-01-14T04:17:12.555Z,15.03
2019-01-14T04:19:40.760Z,17.83
2019-01-14T04:22:08.968Z,16.50
2019-01-14T04:24:37.164Z,16.77
2019-01-14T04:27:05.365Z,15.43
2019-01-14T04:29:35.569Z,14.77
2019-01-14T04:32:03.768Z,16.63
2019-01-14T04:34:31.968Z,16.07
2019-01-14T04:37:00.179Z,15.90
2019-01-14T04:39:28.646Z,16.67
2019-01-14T04:41:56.848Z,14.90
2019-01-14T04:44:25.045Z,16.87
2019-01-14T04:46:53.257Z,17.17
2019-01-14T04:49:21.460Z,14.50
2019-01-14T04:51:49.670Z,14.77
2019-01-14T04:54:17.884Z,15.07
2019-01-14T04:56:46.079Z,18.30
2019-01-14T04:59:14.279Z,17.17
2019-01-14T05:01:42.496Z,18.37
2019-01-14T05:04:10.704Z,14.23
2019-01-14T05:06:38.903Z,15.93
2019-01-14T05:09:07.674Z,13.03
2019-01-14T05:11:35.892Z,18.50
2019-01-14T05:14:04.088Z,15.53
2019-01-14T05:16:32.284Z,16.70
2019-01-14T05:19:00.495Z,15.17
2019-01-14T05:21:28.691Z,16.23
2019-01-14T05:23:56.904Z,18.13
2019-01-14T05:26:25.112Z,16.13
2019-01-14T05:28:53.308Z,16.57
2019-01-14T05:31:21.522Z,16.57
2019-01-14T05:33:49.720Z,16.83
2019-01-14T05:36:17.932Z,14.83
2019-01-14T05:38:46.143Z,15.47
2019-01-14T05:41:14.336Z,14.70
2019-01-14T05:43:42.547Z,14.67
2019-01-14T05:46:10.759Z,11.40
2019-01-14T05:48:40.748Z,13.43
2019-01-14T05:51:08.880Z,16.53
2019-01-14T05:53:37.075Z,13.17
2019-01-14T05:56:05.296Z,14.30
2019-01-14T05:58:33.494Z,16.07
2019-01-14T06:01:01.705Z,15.27
2019-01-14T06:03:29.904Z,11.37
2019-01-14T06:05:58.116Z,13.27
2019-01-14T06:08:26.327Z,14.27
2019-01-14T06:10:54.530Z,12.90
2019-01-14T06:13:22.724Z,15.13
2019-01-14T06:15:50.938Z,13.70
2019-01-14T06:18:19.130Z,13.93
2019-01-14T06:20:47.331Z,11.30
2019-01-14T06:23:15.544Z,13.60
2019-01-14T06:25:43.743Z,17.33
2019-01-14T06:28:11.955Z,14.20
2019-01-14T06:30:40.172Z,12.80
2019-01-14T06:33:08.376Z,12.13
2019-01-14T06:35:36.576Z,10.17
2019-01-14T06:38:04.789Z,9.93
2019-01-14T06:40:32.995Z,12.10
2019-01-14T06:43:01.197Z,13.93
2019-01-14T06:45:29.395Z,10.40
2019-01-14T06:47:57.606Z,11.30
2019-01-14T06:50:25.808Z,12.70
2019-01-14T06:52:54.015Z,11.50
2019-01-14T06:55:22.211Z,8.93
2019-01-14T06:57:50.407Z,12.37
2019-01-14T07:00:23.220Z,14.00
2019-01-14T07:02:52.454Z,10.13
2019-01-14T07:05:20.661Z,9.40
2019-01-14T07:07:48.864Z,9.23
2019-01-14T07:10:24.996Z,12.07
2019-01-14T07:12:53.203Z,10.83
2019-01-14T07:15:21.405Z,11.17
2019-01-14T07:17:49.623Z,13.60
2019-01-14T07:20:18.393Z,10.47
2019-01-14T07:22:46.583Z,12.70
2019-01-14T07:25:14.785Z,12.97
2019-01-14T07:27:42.992Z,8.97
2019-01-14T07:30:21.699Z,8.60
2019-01-14T07:32:49.896Z,9.40
2019-01-14T07:35:18.099Z,9.90
2019-01-14T07:37:46.872Z,7.90
2019-01-14T07:40:16.912Z,7.87
2019-01-14T07:42:45.115Z,8.57
2019-01-14T07:45:15.251Z,9.27
2019-01-14T07:47:43.460Z,9.30
2019-01-14T07:50:13.715Z,9.23
2019-01-14T07:52:41.933Z,11.03
2019-01-14T07:55:10.130Z,7.60
2019-01-14T07:57:38.341Z,9.60
2019-01-14T08:00:24.039Z,9.73
2019-01-14T08:02:52.253Z,9.70
2019-01-14T08:05:20.452Z,9.33
2019-01-14T08:07:48.652Z,7.00
2019-01-14T08:10:17.428Z,8.00
2019-01-14T08:12:45.628Z,8.50
2019-01-14T08:15:18.544Z,11.23
2019-01-14T08:17:46.739Z,8.23
2019-01-14T08:20:14.944Z,8.20
2019-01-14T08:22:43.148Z,6.07
2019-01-14T08:25:12.898Z,8.57
2019-01-14T08:27:41.090Z,7.30
2019-01-14T08:30:15.658Z,7.90
2019-01-14T08:32:43.855Z,10.40
2019-01-14T08:35:12.065Z,9.57
2019-01-14T08:37:40.263Z,6.70
2019-01-14T08:40:11.815Z,8.53
2019-01-14T08:42:40.015Z,6.30
2019-01-14T08:45:09.769Z,8.67
2019-01-14T08:47:37.967Z,9.67
2019-01-14T08:50:09.511Z,8.17
2019-01-14T08:52:37.707Z,8.97
2019-01-14T08:55:06.149Z,6.37
2019-01-14T08:57:34.420Z,9.23
2019-01-14T09:00:04.571Z,9.93
2019-01-14T09:02:32.763Z,7.13
2019-01-14T09:05:01.039Z,5.90
2019-01-14T09:07:29.248Z,7.87
2019-01-14T09:09:57.448Z,8.97
2019-01-14T09:12:25.643Z,7.00
2019-01-14T09:14:53.852Z,8.73
2019-01-14T09:17:22.040Z,8.37
2019-01-14T09:19:50.243Z,6.47
2019-01-14T09:22:18.447Z,6.53
2019-01-14T09:24:46.658Z,5.87
2019-01-14T09:27:14.851Z,6.00
2019-01-14T09:29:43.057Z,7.17
2019-01-14T09:32:11.320Z,5.60
2019-01-14T09:34:39.596Z,5.63
2019-01-14T09:37:07.793Z,7.13
2019-01-14T09:39:35.992Z,5.40
2019-01-14T09:42:04.368Z,6.70
2019-01-14T09:44:32.564Z,8.53
2019-01-14T09:47:00.759Z,7.77
2019-01-14T09:49:28.967Z,6.97
2019-01-14T09:51:57.164Z,7.37
2019-01-14T09:54:25.382Z,6.90
2019-01-14T09:56:53.569Z,5.47
2019-01-14T09:59:21.775Z,5.77
2019-01-14T10:01:49.967Z,5.57
2019-01-14T10:04:18.169Z,7.63
2019-01-14T10:06:46.604Z,6.43
2019-01-14T10:09:14.811Z,6.00
2019-01-14T10:11:43.012Z,5.97
2019-01-14T10:14:11.217Z,8.43
2019-01-14T10:16:39.420Z,5.93
2019-01-14T10:19:08.087Z,7.10
2019-01-14T10:21:36.283Z,6.77
2019-01-14T10:24:04.486Z,5.10
2019-01-14T10:26:32.695Z,8.90
2019-01-14T10:29:00.959Z,6.67
2019-01-14T10:31:29.159Z,4.90
2019-01-14T10:33:57.373Z,4.97
2019-01-14T10:36:25.568Z,8.00
2019-01-14T10:38:53.760Z,7.97
2019-01-14T10:41:21.972Z,6.53
2019-01-14T10:43:50.171Z,5.30
2019-01-14T10:46:18.383Z,8.20
2019-01-14T10:48:46.575Z,5.47
2019-01-14T10:51:14.788Z,5.20
2019-01-14T10:53:43.564Z,4.37
2019-01-14T10:56:11.764Z,5.37
2019-01-14T10:58:39.968Z,5.43
2019-01-14T11:01:08.168Z,8.03
2019-01-14T11:03:36.364Z,5.20
2019-01-14T11:06:04.644Z,4.93
2019-01-14T11:08:32.853Z,4.07
2019-01-14T11:11:01.059Z,5.57
2019-01-14T11:13:29.260Z,5.07
2019-01-14T11:15:57.464Z,6.20
2019-01-14T11:18:25.677Z,5.87
2019-01-14T11:20:53.873Z,5.17
2019-01-14T11:23:22.068Z,4.47
2019-01-14T11:25:50.271Z,5.20
2019-01-14T11:28:18.459Z,5.07
2019-01-14T11:30:46.659Z,3.83
2019-01-14T11:33:14.859Z,4.03
2019-01-14T11:35:43.061Z,4.70
2019-01-14T11:38:31.103Z,6.20
2019-01-14T11:40:59.306Z,6.27
2019-01-14T11:43:27.496Z,4.13
2019-01-14T11:45:55.720Z,4.23
2019-01-14T11:48:23.923Z,4.07
2019-01-14T11:50:52.115Z,4.13
2019-01-14T11:53:20.330Z,5.87
2019-01-14T11:55:48.521Z,5.63
2019-01-14T11:58:16.724Z,5.90
2019-01-14T12:00:44.931Z,4.70
2019-01-14T12:03:13.136Z,4.70
2019-01-14T12:05:42.020Z,6.30
2019-01-14T12:08:10.215Z,4.10
2019-01-14T12:10:38.416Z,4.17
2019-01-14T12:13:06.632Z,6.33
2019-01-14T12:15:34.829Z,4.77
2019-01-14T12:18:03.035Z,7.17
2019-01-14T12:20:32.062Z,3.17
2019-01-14T12:23:00.264Z,3.00
2019-01-14T12:25:28.468Z,5.00
2019-01-14T12:27:56.664Z,3.93
2019-01-14T12:30:32.940Z,5.50
2019-01-14T12:33:01.172Z,3.77
2019-01-14T12:35:29.368Z,4.70
2019-01-14T12:37:57.560Z,3.67
2019-01-14T12:40:25.772Z,5.77
2019-01-14T12:42:53.964Z,5.47
2019-01-14T12:45:22.174Z,4.47
2019-01-14T12:47:50.356Z,3.47
2019-01-14T12:50:20.765Z,4.27
2019-01-14T12:52:48.963Z,5.13
2019-01-14T12:55:18.203Z,4.63
2019-01-14T12:57:46.395Z,4.37
2019-01-14T13:00:29.082Z,5.07
2019-01-14T13:02:58.785Z,4.00
2019-01-14T13:05:27.711Z,4.90
2019-01-14T13:07:55.912Z,3.90
2019-01-14T13:10:24.120Z,4.50
2019-01-14T13:12:52.315Z,4.33
2019-01-14T13:15:22.369Z,4.37
2019-01-14T13:17:50.564Z,4.63
2019-01-14T13:20:22.625Z,4.03
2019-01-14T13:22:50.836Z,2.97
2019-01-14T13:25:19.033Z,4.10
2019-01-14T13:27:47.227Z,4.53
2019-01-14T13:30:18.535Z,2.97
2019-01-14T13:32:46.741Z,4.23
2019-01-14T13:35:14.935Z,3.57
2019-01-14T13:37:43.139Z,4.70
2019-01-14T13:40:12.581Z,3.70
2019-01-14T13:42:40.791Z,4.37
2019-01-14T13:45:20.177Z,2.73
2019-01-14T13:47:48.452Z,2.63
2019-01-14T13:50:21.895Z,3.93
2019-01-14T13:52:50.103Z,5.00
2019-01-14T13:55:18.305Z,4.40
2019-01-14T13:57:46.516Z,4.87
2019-01-14T14:00:17.711Z,6.47
2019-01-14T14:02:45.907Z,3.80
2019-01-14T14:05:14.117Z,4.23
2019-01-14T14:07:42.323Z,2.50
2019-01-14T14:10:16.709Z,3.67
2019-01-14T14:12:45.617Z,4.13
2019-01-14T14:15:15.831Z,2.37
2019-01-14T14:17:44.027Z,2.37
2019-01-14T14:20:14.276Z,2.93
2019-01-14T14:22:42.485Z,2.77
2019-01-14T14:25:11.251Z,4.17
2019-01-14T14:27:39.456Z,4.80
2019-01-14T14:30:22.200Z,3.93
2019-01-14T14:32:50.408Z,2.33
2019-01-14T14:35:18.604Z,3.20
2019-01-14T14:37:46.815Z,3.63
2019-01-14T14:40:15.016Z,3.17
2019-01-14T14:42:43.223Z,3.10
2019-01-14T14:45:12.247Z,2.90
2019-01-14T14:47:40.460Z,5.03
2019-01-14T14:50:12.069Z,4.33
2019-01-14T14:52:40.267Z,5.03
2019-01-14T14:55:08.474Z,3.70
2019-01-14T14:57:36.683Z,2.67
2019-01-14T15:00:08.309Z,3.97
2019-01-14T15:02:36.987Z,4.33
2019-01-14T15:05:07.124Z,2.77
2019-01-14T15:07:35.334Z,3.23
2019-01-14T15:10:04.700Z,3.97
2019-01-14T15:12:32.911Z,3.50
2019-01-14T15:15:01.111Z,3.47
2019-01-14T15:17:29.319Z,2.57
2019-01-14T15:19:57.511Z,3.60
2019-01-14T15:22:25.719Z,2.73
2019-01-14T15:24:53.912Z,2.47
2019-01-14T15:27:22.117Z,3.37
2019-01-14T15:29:50.318Z,2.10
2019-01-14T15:32:18.520Z,5.07
2019-01-14T15:34:47.296Z,2.20
2019-01-14T15:37:15.512Z,3.10
2019-01-14T15:39:43.709Z,3.10
2019-01-14T15:42:11.907Z,1.83
2019-01-14T15:44:40.116Z,3.27
2019-01-14T15:47:08.311Z,3.27
2019-01-14T15:49:36.518Z,2.53
2019-01-14T15:52:04.715Z,2.43
2019-01-14T15:54:32.911Z,3.37
2019-01-14T15:57:01.124Z,3.83
2019-01-14T15:59:29.312Z,2.23
2019-01-14T16:01:57.524Z,2.93
2019-01-14T16:04:25.719Z,2.73
2019-01-14T16:06:53.928Z,2.57
2019-01-14T16:09:22.120Z,1.80
2019-01-14T16:11:50.343Z,2.53
2019-01-14T16:14:18.537Z,1.90
2019-01-14T16:16:46.728Z,1.80
2019-01-14T16:19:14.932Z,2.53
2019-01-14T16:21:43.147Z,2.50
2019-01-14T16:24:11.327Z,2.40
2019-01-14T16:26:39.532Z,3.37
2019-01-14T16:29:08.387Z,2.63
2019-01-14T16:31:36.599Z,2.80
2019-01-14T16:34:04.791Z,3.47
2019-01-14T16:36:33.000Z,3.73
2019-01-14T16:39:01.195Z,3.47
2019-01-14T16:41:29.413Z,3.13
2019-01-14T16:43:57.600Z,2.23
2019-01-14T16:46:25.793Z,2.73
2019-01-14T16:48:54.005Z,3.87
2019-01-14T16:51:22.207Z,4.33
2019-01-14T16:53:50.404Z,3.23
2019-01-14T16:56:18.607Z,4.13
2019-01-14T16:58:46.803Z,2.57
2019-01-14T17:01:15.017Z,2.47
2019-01-14T17:03:43.203Z,2.20
2019-01-14T17:06:11.411Z,4.90
2019-01-14T17:08:39.607Z,3.23
2019-01-14T17:11:07.821Z,2.80
2019-01-14T17:13:36.026Z,1.97
2019-01-14T17:16:04.307Z,1.80
2019-01-14T17:18:32.495Z,3.47
2019-01-14T17:21:00.699Z,2.73
2019-01-14T17:23:28.895Z,3.63
2019-01-14T17:25:57.096Z,2.70
2019-01-14T17:28:25.299Z,2.23
2019-01-14T17:30:53.495Z,5.33
2019-01-14T17:33:21.707Z,4.07
2019-01-14T17:35:49.976Z,2.87
2019-01-14T17:38:18.176Z,2.07
2019-01-14T17:40:46.384Z,2.47
2019-01-14T17:43:14.581Z,2.07
2019-01-14T17:45:42.784Z,3.23
2019-01-14T17:48:10.980Z,1.90
2019-01-14T17:50:39.183Z,2.80
2019-01-14T17:53:07.385Z,1.67
2019-01-14T17:55:35.583Z,1.87
2019-01-14T17:58:04.632Z,3.17
2019-01-14T18:00:32.835Z,3.13
2019-01-14T18:03:01.031Z,4.10
2019-01-14T18:05:29.227Z,1.90
2019-01-14T18:07:57.432Z,2.13
2019-01-14T18:10:25.632Z,1.80
2019-01-14T18:12:53.830Z,2.97
2019-01-14T18:15:22.039Z,5.87
2019-01-14T18:17:50.243Z,1.80
2019-01-14T18:20:18.780Z,2.03
2019-01-14T18:22:46.991Z,3.03
2019-01-14T18:25:15.360Z,1.80
2019-01-14T18:27:43.559Z,3.30
2019-01-14T18:30:14.396Z,2.10
2019-01-14T18:32:42.599Z,2.30
2019-01-14T18:35:10.807Z,1.83
2019-01-14T18:37:38.999Z,2.03
2019-01-14T18:40:09.831Z,2.27
2019-01-14T18:42:38.103Z,3.23
2019-01-14T18:45:09.448Z,3.90
2019-01-14T18:47:37.716Z,5.67
2019-01-14T18:50:11.731Z,1.47
2019-01-14T18:52:39.927Z,1.10
2019-01-14T18:55:08.115Z,1.63
2019-01-14T18:57:36.332Z,2.40
2019-01-14T19:00:07.807Z,1.63
2019-01-14T19:02:36.028Z,2.83
2019-01-14T19:05:04.579Z,1.47
2019-01-14T19:07:32.778Z,1.60
2019-01-14T19:10:00.996Z,2.13
2019-01-14T19:12:29.199Z,1.30
2019-01-14T19:14:57.404Z,2.10
2019-01-14T19:17:26.408Z,1.73
2019-01-14T19:19:54.676Z,2.93
2019-01-14T19:22:25.888Z,2.47
2019-01-14T19:24:54.112Z,2.90
2019-01-14T19:27:22.307Z,3.73
2019-01-14T19:29:59.540Z,3.13
2019-01-14T19:32:27.723Z,2.20
2019-01-14T19:34:55.932Z,2.20
2019-01-14T19:37:24.125Z,1.97
2019-01-14T19:41:39.926Z,2.08
2019-01-14T19:44:08.131Z,2.93
2019-01-14T19:46:36.353Z,1.53
2019-01-14T19:49:04.565Z,2.17
2019-01-14T19:51:32.783Z,2.47
2019-01-14T19:54:00.988Z,1.90
2019-01-14T19:56:29.197Z,3.23
2019-01-14T19:58:57.414Z,1.23
2019-01-14T20:01:25.627Z,1.87
2019-01-14T20:03:53.854Z,3.70
2019-01-14T20:06:22.080Z,1.33
2019-01-14T20:08:50.295Z,2.17
2019-01-14T20:11:18.514Z,3.87
2019-01-14T20:13:46.718Z,2.40
2019-01-14T20:16:14.924Z,1.23
2019-01-14T20:18:43.151Z,2.70
2019-01-14T20:21:11.353Z,3.40
2019-01-14T20:23:39.564Z,17.57
2019-01-14T20:26:07.778Z,7.33
2019-01-14T20:28:35.996Z,2.33
2019-01-14T20:33:11.129Z,10.10
2019-01-14T20:35:39.360Z,4.77
2019-01-14T20:38:07.543Z,2.93
2019-01-14T20:40:35.743Z,3.13
2019-01-14T20:43:03.931Z,1.90
2019-01-14T20:45:32.249Z,6.33
2019-01-14T20:48:00.407Z,1.73
2019-01-14T20:50:28.591Z,2.47
2019-01-14T20:52:56.799Z,2.53
2019-01-14T20:55:24.983Z,2.90
2019-01-14T20:57:53.187Z,1.83
2019-01-14T21:00:22.983Z,1.93
2019-01-14T21:02:51.239Z,3.10
2019-01-14T21:05:19.506Z,4.17
2019-01-14T21:07:47.703Z,1.77
2019-01-14T21:10:16.131Z,2.13
2019-01-14T21:12:44.320Z,2.20
2019-01-14T21:15:12.757Z,3.53
2019-01-14T21:17:40.934Z,2.50
2019-01-14T21:20:20.639Z,1.60
2019-01-14T21:22:48.887Z,1.30
2019-01-14T21:25:17.075Z,3.17
2019-01-14T21:27:45.273Z,2.23
2019-01-14T21:30:16.524Z,3.23
2019-01-14T21:32:44.718Z,2.87
2019-01-14T21:35:12.903Z,2.83
2019-01-14T21:37:41.094Z,2.30
2019-01-14T21:40:11.331Z,3.00
2019-01-14T21:42:39.535Z,2.43
2019-01-14T21:45:10.263Z,2.37
2019-01-14T21:47:38.455Z,2.60
2019-01-14T21:50:15.111Z,3.30
2019-01-14T21:52:43.303Z,2.27
2019-01-14T21:55:16.910Z,1.67
2019-01-14T21:57:45.102Z,3.53
2019-01-14T22:00:16.006Z,1.80
2019-01-14T22:02:44.475Z,1.73
2019-01-14T22:05:12.944Z,2.63
2019-01-14T22:07:41.131Z,1.97
2019-01-14T22:10:12.463Z,4.00
2019-01-14T22:12:40.646Z,1.80
2019-01-14T22:15:10.288Z,2.13
2019-01-14T22:17:38.469Z,2.40
2019-01-14T22:20:12.615Z,2.43
2019-01-14T22:22:40.799Z,2.20
2019-01-14T22:25:08.991Z,2.00
2019-01-14T22:27:37.195Z,3.07
2019-01-14T22:30:16.908Z,2.00
2019-01-14T22:32:45.112Z,1.67
2019-01-14T22:35:13.300Z,1.90
2019-01-14T22:37:41.503Z,2.40
2019-01-14T22:40:12.126Z,1.43
2019-01-14T22:42:43.238Z,2.63
2019-01-14T22:45:12.265Z,2.27
2019-01-14T22:47:40.462Z,2.63
2019-01-14T22:50:11.593Z,1.77
2019-01-14T22:52:39.791Z,3.20
2019-01-14T22:55:08.711Z,2.33
2019-01-14T22:57:36.901Z,2.63
2019-01-14T23:00:47.735Z,1.37
2019-01-14T23:03:15.997Z,2.03
2019-01-14T23:05:44.190Z,1.50
2019-01-14T23:08:13.019Z,1.50
2019-01-14T23:10:41.223Z,1.87
2019-01-14T23:13:09.407Z,2.97
2019-01-14T23:15:37.606Z,1.50
2019-01-14T23:18:05.798Z,2.40
2019-01-14T23:20:33.999Z,1.60
2019-01-14T23:23:02.183Z,1.53
2019-01-14T23:25:30.383Z,4.43
2019-01-14T23:27:58.575Z,3.40
2019-01-14T23:30:26.759Z,2.30
2019-01-14T23:32:54.955Z,2.03
2019-01-14T23:35:23.144Z,2.27
2019-01-14T23:37:51.351Z,1.67
2019-01-14T23:40:19.530Z,1.40
2019-01-14T23:42:47.798Z,2.00
2019-01-14T23:45:15.983Z,2.97
2019-01-14T23:47:44.187Z,2.47
2019-01-14T23:50:14.005Z,3.00
2019-01-14T23:52:42.199Z,1.47
2019-01-14T23:55:10.398Z,3.33
2019-01-14T23:57:38.587Z,2.33
